Aristobulo del Valle, Argentina
Current Conditions -  °F | °C
As of 10:00 PM on Sunday 21 Dec 2014 (Local Time) from SARI Reporting Station
Overcast Overcast  
Wind Chill: 68°   Ceiling: 10000
Heat Index: 68°   Visibility: 5mi
Dew Point: 68°   Wind: 2mph
Humidity: 100%   Direction: 180°S
Pressure: 29.77"   Gusts: NA
Location:  26.92°S, 54.35°W
Report Text: SARI 220100Z 18002KT 8000 SCT010 OVC10020/20 Q1008
Loading
Personal Weather Stations






























Interactive Weather Map New forecast layout! Learn more

10-Day Weather Forecast

Advertisements
Track Severe Weather on mobile